Terminal Aerodrome Forecast
Issued by NWS Louisville, KY

Home | Current Version | Previous Version | Text Only | Print | Product List | Glossary On
Versions: 1 2 3 4 5 6 7 8 9 10 11 12 13
000
FTUS43 KLMK 231100
TAFBWG
TAF
KBWG 231126Z 2312/2412 18007KT 5SM -SHRA BR BKN009 OVC014
     FM231500 VRB04KT 4SM -SHRA BR OVC007
     FM240300 16009KT 4SM -SHRA BR OVC007=

USA.gov is the U.S. government's official web portal to all federal, state and local government web resources and services.